createdAt,value
2018-03-23T00:00:37.041Z,29.87
2018-03-23T00:03:04.494Z,31.60
2018-03-23T00:05:31.948Z,28.10
2018-03-23T00:07:59.427Z,29.10
2018-03-23T00:10:26.996Z,28.27
2018-03-23T00:12:54.488Z,29.37
2018-03-23T00:15:21.937Z,29.53
2018-03-23T00:20:41.837Z,31.57
2018-03-23T00:23:09.307Z,29.13
2018-03-23T00:25:36.778Z,32.30
2018-03-23T00:28:04.769Z,29.73
2018-03-23T00:30:32.227Z,29.70
2018-03-23T00:32:59.759Z,35.87
2018-03-23T00:35:27.247Z,30.77
2018-03-23T00:37:54.763Z,30.10
2018-03-23T00:40:22.280Z,34.30
2018-03-23T00:42:49.750Z,29.80
2018-03-23T00:45:17.233Z,29.80
2018-03-23T00:47:44.757Z,30.27
2018-03-23T00:50:12.209Z,29.77
2018-03-23T00:52:39.671Z,30.00
2018-03-23T00:55:07.158Z,33.60
2018-03-23T00:57:34.646Z,30.73
2018-03-23T01:00:02.156Z,31.73
2018-03-23T01:02:29.633Z,30.93
2018-03-23T01:04:57.162Z,33.63
2018-03-23T01:07:24.617Z,30.70
2018-03-23T01:09:52.072Z,35.10
2018-03-23T01:12:19.569Z,32.87
2018-03-23T01:14:47.023Z,35.67
2018-03-23T01:17:14.547Z,32.07
2018-03-23T01:19:41.990Z,33.77
2018-03-23T01:22:16.007Z,32.53
2018-03-23T01:24:43.516Z,35.73
2018-03-23T01:27:10.986Z,32.77
2018-03-23T01:29:38.454Z,32.80
2018-03-23T01:32:05.924Z,36.10
2018-03-23T01:34:33.387Z,33.30
2018-03-23T01:37:00.903Z,34.43
2018-03-23T01:39:33.315Z,38.43
2018-03-23T01:42:00.823Z,33.87
2018-03-23T01:44:28.280Z,37.27
2018-03-23T01:46:55.770Z,34.30
2018-03-23T01:49:23.310Z,37.70
2018-03-23T01:51:50.790Z,34.60
2018-03-23T01:54:18.286Z,35.30
2018-03-23T01:56:45.761Z,33.97
2018-03-23T01:59:13.226Z,37.00
2018-03-23T02:01:40.738Z,34.63
2018-03-23T02:04:08.196Z,39.73
2018-03-23T02:06:35.648Z,34.20
2018-03-23T02:09:03.165Z,35.03
2018-03-23T02:11:30.631Z,38.13
2018-03-23T02:13:58.086Z,35.00
2018-03-23T02:16:25.688Z,34.30
2018-03-23T02:18:53.146Z,33.93
2018-03-23T02:21:20.600Z,36.83
2018-03-23T02:23:48.088Z,38.73
2018-03-23T02:26:15.532Z,36.43
2018-03-23T02:28:42.992Z,36.17
2018-03-23T02:31:10.495Z,38.23
2018-03-23T02:33:37.995Z,36.27
2018-03-23T02:36:05.453Z,35.60
2018-03-23T02:38:33.003Z,39.87
2018-03-23T02:41:00.445Z,36.87
2018-03-23T02:43:27.923Z,37.20
2018-03-23T02:45:55.431Z,38.03
2018-03-23T02:48:22.890Z,38.90
2018-03-23T02:50:50.409Z,35.60
2018-03-23T02:53:17.851Z,37.27
2018-03-23T02:55:45.328Z,38.03
2018-03-23T02:58:12.785Z,35.83
2018-03-23T03:00:40.225Z,37.20
2018-03-23T03:03:07.699Z,35.13
2018-03-23T03:05:35.163Z,40.03
2018-03-23T03:08:02.648Z,35.43
2018-03-23T03:10:30.146Z,35.03
2018-03-23T03:12:57.588Z,37.67
2018-03-23T03:15:25.104Z,36.33
2018-03-23T03:17:52.628Z,35.63
2018-03-23T03:20:20.080Z,39.80
2018-03-23T03:22:47.543Z,35.30
2018-03-23T03:25:15.024Z,35.73
2018-03-23T03:27:42.480Z,34.10
2018-03-23T03:30:09.953Z,35.37
2018-03-23T03:32:37.420Z,37.13
2018-03-23T03:35:04.880Z,36.57
2018-03-23T03:37:32.350Z,34.07
2018-03-23T03:39:59.836Z,33.43
2018-03-23T03:42:28.272Z,39.47
2018-03-23T03:44:55.706Z,35.23
2018-03-23T03:47:23.180Z,35.53
2018-03-23T03:49:50.694Z,40.67
2018-03-23T03:52:18.186Z,38.07
2018-03-23T03:54:45.666Z,34.13
2018-03-23T03:57:13.150Z,36.17
2018-03-23T03:59:40.646Z,37.13
2018-03-23T04:02:08.392Z,39.30
2018-03-23T04:04:37.381Z,36.40
2018-03-23T04:07:04.836Z,39.50
2018-03-23T04:09:32.326Z,35.43
2018-03-23T04:11:59.778Z,35.17
2018-03-23T04:14:27.243Z,35.13
2018-03-23T04:16:55.928Z,36.23
2018-03-23T04:19:23.452Z,34.60
2018-03-23T04:21:50.912Z,35.90
2018-03-23T04:24:18.366Z,34.73
2018-03-23T04:26:45.860Z,35.80
2018-03-23T04:29:13.360Z,38.27
2018-03-23T04:31:40.804Z,36.57
2018-03-23T04:34:08.336Z,36.93
2018-03-23T04:36:35.824Z,36.00
2018-03-23T04:39:03.450Z,35.83
2018-03-23T04:41:30.911Z,40.73
2018-03-23T04:43:58.389Z,36.13
2018-03-23T04:46:25.867Z,36.20
2018-03-23T04:48:53.351Z,35.33
2018-03-23T04:51:20.914Z,37.53
2018-03-23T04:53:48.376Z,34.23
2018-03-23T04:56:16.682Z,35.60
2018-03-23T04:58:44.144Z,38.37
2018-03-23T05:01:11.602Z,36.97
2018-03-23T05:03:39.083Z,36.83
2018-03-23T05:06:06.602Z,40.47
2018-03-23T05:08:34.148Z,35.73
2018-03-23T05:11:01.637Z,38.00
2018-03-23T05:13:29.082Z,35.67
2018-03-23T05:15:56.584Z,34.80
2018-03-23T05:18:24.311Z,36.63
2018-03-23T05:20:51.833Z,36.90
2018-03-23T05:23:19.295Z,35.27
2018-03-23T05:25:47.576Z,35.33
2018-03-23T05:28:15.053Z,35.73
2018-03-23T05:30:43.102Z,33.17
2018-03-23T05:33:10.592Z,32.93
2018-03-23T05:35:38.116Z,33.03
2018-03-23T05:38:05.628Z,32.17
2018-03-23T05:40:33.160Z,34.40
2018-03-23T05:43:00.612Z,32.90
2018-03-23T05:45:28.182Z,33.17
2018-03-23T05:47:55.656Z,32.60
2018-03-23T05:50:24.246Z,33.70
2018-03-23T05:52:51.963Z,34.70
2018-03-23T05:55:19.566Z,35.27
2018-03-23T05:57:47.097Z,35.17
2018-03-23T06:00:14.566Z,34.57
2018-03-23T06:02:42.120Z,34.87
2018-03-23T06:05:09.755Z,34.40
2018-03-23T06:07:37.232Z,35.47
2018-03-23T06:10:04.771Z,32.53
2018-03-23T06:12:32.337Z,35.13
2018-03-23T06:14:59.810Z,35.33
2018-03-23T06:17:27.352Z,35.23
2018-03-23T06:19:54.820Z,37.87
2018-03-23T06:22:22.377Z,34.50
2018-03-23T06:24:49.909Z,35.57
2018-03-23T06:27:17.485Z,36.67
2018-03-23T06:29:44.978Z,36.00
2018-03-23T06:32:12.449Z,34.43
2018-03-23T06:34:39.900Z,34.17
2018-03-23T06:37:07.422Z,30.73
2018-03-23T06:39:35.219Z,30.43
2018-03-23T06:42:02.721Z,29.73
2018-03-23T06:44:30.175Z,29.53
2018-03-23T06:46:57.679Z,27.53
2018-03-23T06:49:25.203Z,33.63
2018-03-23T06:51:53.421Z,37.67
2018-03-23T06:54:20.898Z,34.13
2018-03-23T06:56:48.431Z,32.33
2018-03-23T06:59:15.875Z,30.80
2018-03-23T07:01:43.347Z,34.97
2018-03-23T07:04:10.827Z,33.73
2018-03-23T07:06:39.309Z,32.27
2018-03-23T07:09:11.961Z,34.10
2018-03-23T07:11:39.458Z,34.93
2018-03-23T07:14:06.949Z,34.57
2018-03-23T07:16:34.491Z,37.67
2018-03-23T07:19:02.009Z,38.50
2018-03-23T07:21:29.467Z,39.40
2018-03-23T07:23:57.008Z,38.37
2018-03-23T07:26:24.454Z,37.30
2018-03-23T07:28:51.943Z,38.77
2018-03-23T07:31:19.448Z,37.83
2018-03-23T07:33:47.001Z,36.73
2018-03-23T07:36:14.527Z,36.60
2018-03-23T07:38:41.981Z,35.70
2018-03-23T07:41:09.485Z,35.87
2018-03-23T07:43:36.981Z,33.43
2018-03-23T07:46:04.531Z,33.33
2018-03-23T07:48:32.018Z,32.77
2018-03-23T07:50:59.527Z,33.37
2018-03-23T07:53:27.085Z,30.30
2018-03-23T07:55:54.606Z,32.73
2018-03-23T07:58:22.126Z,31.47
2018-03-23T08:00:49.595Z,32.77
2018-03-23T08:03:17.126Z,29.73
2018-03-23T08:05:44.608Z,29.30
2018-03-23T08:08:12.133Z,28.43
2018-03-23T08:10:39.628Z,27.73
2018-03-23T08:13:07.144Z,26.30
2018-03-23T08:15:34.595Z,25.73
2018-03-23T08:18:02.157Z,26.20
2018-03-23T08:20:29.616Z,25.17
2018-03-23T08:22:57.181Z,26.80
2018-03-23T08:25:24.629Z,23.70
2018-03-23T08:27:52.175Z,23.47
2018-03-23T08:30:19.712Z,22.43
2018-03-23T08:32:47.251Z,21.80
2018-03-23T08:35:14.742Z,19.07
2018-03-23T08:37:42.521Z,19.23
2018-03-23T08:40:09.997Z,17.47
2018-03-23T08:42:37.608Z,16.97
2018-03-23T08:45:05.129Z,17.03
2018-03-23T08:47:32.647Z,17.47
2018-03-23T08:50:00.125Z,16.03
2018-03-23T08:52:27.623Z,15.80
2018-03-23T08:54:55.089Z,16.93
2018-03-23T08:57:22.604Z,17.10
2018-03-23T08:59:50.113Z,17.07
2018-03-23T09:02:17.584Z,17.57
2018-03-23T09:04:45.045Z,15.47
2018-03-23T09:07:12.530Z,15.80
2018-03-23T09:09:40.045Z,15.87
2018-03-23T09:12:07.517Z,15.33
2018-03-23T09:14:35.009Z,15.40
2018-03-23T09:17:02.674Z,17.20
2018-03-23T09:19:30.197Z,16.30
2018-03-23T09:21:57.752Z,18.07
2018-03-23T09:24:25.234Z,19.07
2018-03-23T09:26:52.808Z,19.20
2018-03-23T09:29:20.299Z,19.63
2018-03-23T09:31:47.777Z,20.93
2018-03-23T09:34:15.254Z,20.83
2018-03-23T09:36:42.752Z,20.87
2018-03-23T09:39:19.923Z,21.27
2018-03-23T09:41:47.483Z,23.13
2018-03-23T09:44:15.063Z,23.00
2018-03-23T09:46:42.601Z,19.63
2018-03-23T09:49:10.155Z,16.93
2018-03-23T09:51:37.643Z,17.53
2018-03-23T09:54:05.243Z,17.10
2018-03-23T09:56:32.739Z,16.17
2018-03-23T09:59:00.347Z,16.60
2018-03-23T10:01:27.859Z,17.40
2018-03-23T10:03:55.579Z,15.13
2018-03-23T10:06:22.993Z,16.87
2018-03-23T10:08:50.504Z,20.47
2018-03-23T10:11:17.964Z,18.13
2018-03-23T10:13:45.607Z,15.40
2018-03-23T10:16:13.140Z,16.57
2018-03-23T10:18:40.670Z,15.80
2018-03-23T10:21:08.235Z,15.87
2018-03-23T10:23:35.744Z,16.23
2018-03-23T10:26:03.350Z,16.80
2018-03-23T10:28:30.836Z,17.20
2018-03-23T10:30:58.340Z,16.90
2018-03-23T10:33:25.815Z,16.57
2018-03-23T10:35:53.623Z,17.10
2018-03-23T10:38:21.174Z,16.13
2018-03-23T10:40:48.668Z,14.97
2018-03-23T10:43:16.203Z,14.73
2018-03-23T10:45:43.796Z,16.30
2018-03-23T10:48:11.489Z,14.77
2018-03-23T10:50:39.017Z,14.73
2018-03-23T10:53:06.469Z,16.03
2018-03-23T10:55:34.035Z,14.10
2018-03-23T10:58:06.362Z,12.83
2018-03-23T11:00:39.498Z,12.43
2018-03-23T11:03:06.975Z,13.90
2018-03-23T11:05:34.456Z,13.37
2018-03-23T11:08:01.961Z,14.03
2018-03-23T11:10:29.608Z,13.23
2018-03-23T11:12:57.136Z,13.40
2018-03-23T11:15:24.624Z,12.57
2018-03-23T11:17:52.143Z,14.90
2018-03-23T11:20:19.580Z,13.37
2018-03-23T11:22:47.078Z,12.83
2018-03-23T11:25:14.636Z,12.63
2018-03-23T11:27:42.125Z,12.80
2018-03-23T11:30:09.904Z,12.33
2018-03-23T11:32:37.392Z,12.53
2018-03-23T11:35:04.943Z,11.70
2018-03-23T11:37:32.414Z,12.27
2018-03-23T11:39:59.890Z,12.57
2018-03-23T11:42:27.716Z,13.33
2018-03-23T11:44:55.198Z,13.17
2018-03-23T11:47:22.810Z,13.40
2018-03-23T11:49:50.316Z,13.53
2018-03-23T11:52:17.789Z,12.43
2018-03-23T11:54:45.663Z,13.23
2018-03-23T11:57:13.173Z,13.57
2018-03-23T11:59:40.635Z,11.93
2018-03-23T12:02:08.084Z,13.27
2018-03-23T12:04:35.576Z,12.90
2018-03-23T12:07:03.422Z,13.77
2018-03-23T12:09:30.876Z,13.03
2018-03-23T12:11:58.386Z,12.67
2018-03-23T12:14:25.973Z,13.63
2018-03-23T12:16:53.400Z,13.60
2018-03-23T12:19:30.484Z,13.57
2018-03-23T12:21:58.023Z,12.20
2018-03-23T12:24:25.489Z,13.07
2018-03-23T12:26:53.012Z,12.57
2018-03-23T12:29:20.484Z,11.63
2018-03-23T12:31:47.980Z,11.73
2018-03-23T12:34:15.493Z,11.27
2018-03-23T12:36:43.052Z,11.20
2018-03-23T12:39:10.557Z,11.93
2018-03-23T12:41:38.650Z,11.37
2018-03-23T12:44:06.149Z,12.10
2018-03-23T12:46:33.612Z,12.33
2018-03-23T12:49:01.106Z,11.57
2018-03-23T12:51:28.550Z,12.53
2018-03-23T12:53:56.019Z,12.57
2018-03-23T12:56:23.540Z,11.57
2018-03-23T12:58:51.026Z,12.33
2018-03-23T13:01:18.562Z,11.67
2018-03-23T13:03:46.114Z,12.37
2018-03-23T13:06:13.557Z,11.97
2018-03-23T13:08:41.043Z,11.23
2018-03-23T13:11:08.529Z,10.93
2018-03-23T13:13:35.992Z,10.50
2018-03-23T13:16:03.543Z,11.90
2018-03-23T13:18:31.832Z,12.13
2018-03-23T13:20:59.315Z,11.93
2018-03-23T13:23:26.798Z,12.00
2018-03-23T13:25:54.290Z,12.30
2018-03-23T13:28:21.816Z,11.80
2018-03-23T13:30:49.283Z,10.90
2018-03-23T13:33:16.763Z,11.30
2018-03-23T13:35:44.249Z,12.57
2018-03-23T13:38:16.668Z,12.07
2018-03-23T13:40:44.139Z,12.80
2018-03-23T13:43:11.612Z,11.70
2018-03-23T13:45:40.152Z,12.30
2018-03-23T13:48:09.028Z,12.40
2018-03-23T13:50:36.492Z,11.97
2018-03-23T13:53:04.658Z,11.60
2018-03-23T13:55:32.502Z,11.20
2018-03-23T13:57:59.986Z,11.67
2018-03-23T14:00:33.736Z,11.73
2018-03-23T14:03:01.244Z,11.23
2018-03-23T14:05:29.223Z,11.23
2018-03-23T14:07:57.010Z,11.50
2018-03-23T14:10:24.618Z,11.60
2018-03-23T14:12:52.992Z,11.60
2018-03-23T14:15:20.474Z,11.67
2018-03-23T14:17:48.264Z,11.20
2018-03-23T14:20:15.852Z,11.33
2018-03-23T14:22:43.347Z,12.17
2018-03-23T14:25:10.841Z,11.47
2018-03-23T14:27:38.425Z,12.40
2018-03-23T14:30:06.296Z,11.03
2018-03-23T14:32:34.710Z,11.10
2018-03-23T14:35:02.310Z,12.07
2018-03-23T14:37:29.905Z,11.97
2018-03-23T14:40:16.774Z,11.53
2018-03-23T14:42:44.269Z,10.73
2018-03-23T14:45:11.781Z,11.93
2018-03-23T14:47:39.241Z,12.10
2018-03-23T14:50:07.120Z,11.60
2018-03-23T14:52:34.719Z,11.37
2018-03-23T14:55:02.277Z,11.50
2018-03-23T14:57:29.747Z,11.50
2018-03-23T14:59:57.309Z,13.57
2018-03-23T15:02:24.906Z,12.43
2018-03-23T15:04:53.242Z,12.07
2018-03-23T15:07:20.839Z,12.77
2018-03-23T15:09:49.264Z,12.83
2018-03-23T15:12:16.772Z,13.03
2018-03-23T15:14:44.291Z,12.03
2018-03-23T15:17:11.873Z,11.97
2018-03-23T15:19:39.424Z,11.00
2018-03-23T15:22:07.693Z,10.60
2018-03-23T15:24:35.574Z,11.53
2018-03-23T15:27:03.122Z,10.63
2018-03-23T15:29:30.572Z,11.90
2018-03-23T15:31:58.222Z,13.90
2018-03-23T15:34:25.778Z,11.87
2018-03-23T15:36:53.264Z,11.70
2018-03-23T15:39:20.762Z,10.07
2018-03-23T15:41:48.257Z,11.33
2018-03-23T15:44:15.803Z,11.07
2018-03-23T15:46:43.321Z,11.00
2018-03-23T15:49:10.843Z,11.10
2018-03-23T15:51:38.423Z,10.73
2018-03-23T15:54:05.935Z,10.43
2018-03-23T15:56:33.468Z,11.33
2018-03-23T15:59:00.975Z,11.33
2018-03-23T16:01:28.507Z,11.00
2018-03-23T16:03:56.051Z,10.50
2018-03-23T16:06:23.503Z,10.87
2018-03-23T16:08:51.026Z,10.83
2018-03-23T16:11:18.559Z,10.57
2018-03-23T16:13:46.023Z,9.80
2018-03-23T16:16:13.547Z,10.57
2018-03-23T16:18:41.053Z,10.33
2018-03-23T16:21:08.598Z,9.70
2018-03-23T16:23:36.084Z,10.27
2018-03-23T16:26:03.591Z,10.47
2018-03-23T16:28:31.037Z,10.70
2018-03-23T16:30:58.499Z,10.50
2018-03-23T16:33:25.999Z,10.33
2018-03-23T16:35:53.531Z,9.80
2018-03-23T16:38:26.055Z,11.07
2018-03-23T16:40:53.531Z,10.60
2018-03-23T16:43:21.015Z,10.00
2018-03-23T16:45:48.525Z,10.77
2018-03-23T16:48:16.017Z,9.77
2018-03-23T16:50:43.545Z,9.17
2018-03-23T16:53:11.123Z,9.23
2018-03-23T16:55:38.609Z,9.13
2018-03-23T16:58:06.159Z,9.47
2018-03-23T17:00:33.727Z,9.27
2018-03-23T17:03:01.231Z,9.27
2018-03-23T17:05:28.738Z,8.87
2018-03-23T17:07:56.225Z,8.50
2018-03-23T17:10:23.673Z,8.67
2018-03-23T17:12:51.291Z,8.60
2018-03-23T17:15:18.787Z,9.37
2018-03-23T17:17:46.246Z,9.37
2018-03-23T17:20:13.813Z,9.30
2018-03-23T17:22:41.390Z,9.93
2018-03-23T17:25:08.885Z,8.43
2018-03-23T17:27:36.469Z,9.37
2018-03-23T17:30:04.179Z,9.30
2018-03-23T17:32:31.803Z,8.70
2018-03-23T17:34:59.296Z,9.43
2018-03-23T17:37:26.742Z,9.20
2018-03-23T17:39:54.260Z,10.03
2018-03-23T17:42:21.840Z,10.63
2018-03-23T17:44:49.317Z,10.33
2018-03-23T17:47:16.849Z,12.17
2018-03-23T17:49:44.329Z,9.93
2018-03-23T17:52:12.253Z,10.00
2018-03-23T17:54:39.797Z,10.30
2018-03-23T17:57:07.364Z,10.93
2018-03-23T17:59:34.897Z,10.90
2018-03-23T18:02:02.404Z,10.53
2018-03-23T18:04:29.839Z,9.87
2018-03-23T18:06:57.648Z,10.63
2018-03-23T18:09:25.231Z,10.13
2018-03-23T18:11:52.776Z,10.00
2018-03-23T18:14:20.287Z,10.13
2018-03-23T18:16:47.954Z,9.90
2018-03-23T18:19:15.476Z,9.83
2018-03-23T18:21:42.993Z,9.87
2018-03-23T18:24:10.475Z,9.40
2018-03-23T18:26:38.009Z,10.00
2018-03-23T18:29:05.472Z,9.83
2018-03-23T18:31:33.095Z,9.43
2018-03-23T18:34:00.659Z,9.97
2018-03-23T18:36:28.277Z,9.27
2018-03-23T18:38:55.751Z,10.03
2018-03-23T18:41:23.323Z,8.80
2018-03-23T18:43:50.862Z,9.53
2018-03-23T18:46:18.436Z,9.33
2018-03-23T18:48:45.884Z,9.53
2018-03-23T18:51:13.349Z,9.60
2018-03-23T18:53:40.865Z,9.33
2018-03-23T18:56:08.377Z,9.60
2018-03-23T18:58:35.979Z,10.47
2018-03-23T19:01:03.501Z,10.90
2018-03-23T19:03:30.982Z,10.27
2018-03-23T19:05:58.544Z,10.13
2018-03-23T19:08:45.345Z,11.30
2018-03-23T19:11:13.009Z,10.63
2018-03-23T19:13:40.476Z,10.60
2018-03-23T19:16:08.007Z,10.33
2018-03-23T19:18:35.568Z,10.70
2018-03-23T19:21:03.098Z,9.33
2018-03-23T19:23:30.627Z,10.00
2018-03-23T19:25:58.101Z,9.30
2018-03-23T19:28:25.578Z,9.30
2018-03-23T19:30:53.101Z,10.33
2018-03-23T19:33:20.560Z,9.80
2018-03-23T19:35:48.029Z,10.33
2018-03-23T19:38:15.498Z,9.80
2018-03-23T19:40:43.073Z,10.53
2018-03-23T19:43:10.531Z,10.73
2018-03-23T19:45:38.067Z,9.43
2018-03-23T19:48:05.565Z,9.97
2018-03-23T19:50:33.048Z,9.77
2018-03-23T19:53:00.530Z,10.67
2018-03-23T19:55:28.118Z,11.00
2018-03-23T19:57:55.615Z,9.70
2018-03-23T20:00:23.159Z,10.43
2018-03-23T20:02:51.676Z,9.43
2018-03-23T20:05:19.203Z,9.57
2018-03-23T20:07:46.676Z,10.33
2018-03-23T20:10:14.275Z,9.73
2018-03-23T20:12:41.839Z,9.43
2018-03-23T20:15:10.202Z,10.30
2018-03-23T20:17:43.407Z,9.40
2018-03-23T20:20:16.569Z,10.03
2018-03-23T20:22:44.100Z,10.60
2018-03-23T20:25:11.585Z,10.17
2018-03-23T20:27:44.852Z,10.13
2018-03-23T20:30:12.370Z,10.10
2018-03-23T20:32:39.867Z,11.20
2018-03-23T20:35:07.392Z,10.20
2018-03-23T20:37:34.923Z,10.37
2018-03-23T20:40:02.425Z,10.87
2018-03-23T20:42:29.907Z,11.07
2018-03-23T20:44:57.392Z,11.37
2018-03-23T20:47:24.981Z,10.33
2018-03-23T20:50:06.751Z,10.90
2018-03-23T20:52:34.257Z,11.07
2018-03-23T20:55:01.765Z,11.17
2018-03-23T20:57:29.222Z,10.60
2018-03-23T20:59:56.756Z,11.20
2018-03-23T21:02:24.243Z,10.90
2018-03-23T21:04:51.942Z,10.87
2018-03-23T21:07:19.418Z,12.23
2018-03-23T21:09:47.014Z,11.27
2018-03-23T21:12:14.482Z,11.50
2018-03-23T21:14:41.998Z,10.90
2018-03-23T21:17:09.450Z,10.63
2018-03-23T21:22:30.146Z,11.20
2018-03-23T21:24:57.668Z,11.67
2018-03-23T21:27:25.461Z,11.30
2018-03-23T21:29:53.028Z,11.27
2018-03-23T21:32:20.604Z,12.00
2018-03-23T21:34:48.092Z,12.83
2018-03-23T21:37:15.658Z,10.93
2018-03-23T21:39:43.127Z,11.77
2018-03-23T21:42:11.077Z,12.10
2018-03-23T21:44:38.922Z,12.30
2018-03-23T21:47:07.332Z,13.43
2018-03-23T21:49:34.889Z,12.13
2018-03-23T21:52:02.451Z,11.70
2018-03-23T21:54:29.960Z,11.10
2018-03-23T21:56:57.452Z,11.47
2018-03-23T21:59:24.982Z,11.60
2018-03-23T22:01:52.460Z,12.30
2018-03-23T22:04:19.962Z,11.93
2018-03-23T22:06:47.472Z,11.77
2018-03-23T22:09:15.111Z,11.43
2018-03-23T22:11:42.676Z,12.67
2018-03-23T22:14:10.173Z,12.37
2018-03-23T22:16:37.668Z,11.73
2018-03-23T22:19:19.430Z,11.80
2018-03-23T22:21:46.913Z,14.30
2018-03-23T22:24:14.427Z,11.50
2018-03-23T22:26:41.962Z,11.00
2018-03-23T22:29:14.396Z,12.77
2018-03-23T22:31:41.852Z,10.80
2018-03-23T22:34:09.422Z,11.87
2018-03-23T22:36:36.900Z,11.57
2018-03-23T22:39:04.426Z,11.13
2018-03-23T22:41:31.945Z,11.57
2018-03-23T22:43:59.762Z,11.03
2018-03-23T22:46:27.268Z,13.30
2018-03-23T22:48:54.844Z,11.10
2018-03-23T22:51:22.284Z,11.63
2018-03-23T22:53:49.888Z,11.40
2018-03-23T22:56:17.374Z,12.43
2018-03-23T22:58:44.895Z,9.97
2018-03-23T23:01:12.348Z,11.03
2018-03-23T23:03:39.993Z,10.27
2018-03-23T23:06:07.482Z,11.10
2018-03-23T23:08:34.994Z,10.53
2018-03-23T23:11:02.450Z,10.70
2018-03-23T23:13:29.911Z,9.93
2018-03-23T23:15:57.364Z,11.03
2018-03-23T23:18:24.870Z,10.53
2018-03-23T23:20:52.641Z,10.90
2018-03-23T23:23:21.425Z,11.93
2018-03-23T23:25:49.006Z,11.53
2018-03-23T23:28:16.490Z,11.10
2018-03-23T23:30:43.978Z,11.57
2018-03-23T23:33:11.456Z,12.70
2018-03-23T23:35:38.984Z,12.90
2018-03-23T23:38:06.566Z,12.70
2018-03-23T23:40:34.096Z,14.67
2018-03-23T23:43:01.578Z,13.30
2018-03-23T23:45:30.082Z,14.30
2018-03-23T23:47:57.632Z,15.00
2018-03-23T23:50:25.076Z,15.83
2018-03-23T23:52:52.560Z,15.93
2018-03-23T23:55:20.093Z,15.97
2018-03-23T23:57:47.552Z,15.37
